Huvudsida
METAR-TAF:

METAR-TAF

Flygplatser :

Harstad-Narviks flygplats. Evenes

Evenes, Norge

latitud: 68-31N, longitud: 016-41E, höjd: 26 m

Aktuellt väderrapport

Denna rapport gjordes för 1 timme och 2 minuter sedan, klockan 11:50 UTC
Vind 5 kt från syd/sydost, varierande mellan ost/sydost och sydväst
Temperatur 17°C
Fuktighet 55%
Tryck 999 hPa
Sikt 10 km eller mer
Spridda moln på en höjd av 6600 ft

METAR: ENEV 181150Z 16005KT 120V220 9999 SCT066 17/08 Q0999 RMK WIND 1400FT 16007KT

Tid: 14:52 (12:52 UTC)

Väderprognos

Denna rapport gjordes för 1 timme och 52 minuter sedan, klockan 11:00 UTC
Prognos gäller från 18 kl. 12 UTC till 18 kl. 15 UTC
Vind 5 kt från syd/sydost
Sikt 10 km eller mer
Spridda moln på en höjd av 4500 ft

TAF: ENEV 181100Z 1812/1815 15005KT 9999 SCT045

Aktuella väderrapporter och prognoser från 4000 flygplatser (METAR- och TAF-rapporter).

De tillgängliga stationerna syns som gula och röda prickar på kartan.

För musen över prickarna för att se namnen på stationerna.

Klicka sedan för att få väderrapporter och prognoser.

För att ändra kartan: Klicka på de gröna knapparna med ett svart kors på för att zooma in; den gröna knappen med ett streck på för att zooma ut; eller på de gröna pilarna för angränsande kartor.


METAR-TAF: